sensor_id;sensor_type;location;lat;lon;timestamp;P1;durP1;ratioP1;P2;durP2;ratioP2
19883;SDS011;10104;50.732;10.174;2023-12-28T00:02:31;2.97;;;1.50;;
19883;SDS011;10104;50.732;10.174;2023-12-28T00:05:11;4.00;;;2.00;;
19883;SDS011;10104;50.732;10.174;2023-12-28T00:07:51;3.77;;;2.43;;
19883;SDS011;10104;50.732;10.174;2023-12-28T00:10:38;3.47;;;1.97;;
19883;SDS011;10104;50.732;10.174;2023-12-28T00:13:18;2.17;;;1.37;;
19883;SDS011;10104;50.732;10.174;2023-12-28T00:15:58;1.93;;;1.33;;
19883;SDS011;10104;50.732;10.174;2023-12-28T00:18:39;3.13;;;1.30;;
19883;SDS011;10104;50.732;10.174;2023-12-28T00:21:19;1.67;;;1.20;;
19883;SDS011;10104;50.732;10.174;2023-12-28T00:23:59;2.00;;;1.20;;
19883;SDS011;10104;50.732;10.174;2023-12-28T00:26:40;1.50;;;1.23;;
19883;SDS011;10104;50.732;10.174;2023-12-28T00:29:20;2.63;;;1.30;;
19883;SDS011;10104;50.732;10.174;2023-12-28T00:32:01;1.83;;;1.27;;
19883;SDS011;10104;50.732;10.174;2023-12-28T00:34:41;2.10;;;1.33;;
19883;SDS011;10104;50.732;10.174;2023-12-28T00:37:21;2.20;;;1.30;;
19883;SDS011;10104;50.732;10.174;2023-12-28T00:40:02;2.30;;;1.57;;
19883;SDS011;10104;50.732;10.174;2023-12-28T00:42:42;2.47;;;1.33;;
19883;SDS011;10104;50.732;10.174;2023-12-28T00:45:23;2.67;;;1.53;;
19883;SDS011;10104;50.732;10.174;2023-12-28T00:48:03;2.83;;;1.60;;
19883;SDS011;10104;50.732;10.174;2023-12-28T00:50:44;2.27;;;1.23;;
19883;SDS011;10104;50.732;10.174;2023-12-28T00:53:25;1.80;;;1.27;;
19883;SDS011;10104;50.732;10.174;2023-12-28T00:56:06;2.83;;;1.33;;
19883;SDS011;10104;50.732;10.174;2023-12-28T00:58:46;1.70;;;1.40;;
19883;SDS011;10104;50.732;10.174;2023-12-28T01:01:27;3.37;;;1.57;;
19883;SDS011;10104;50.732;10.174;2023-12-28T01:04:07;2.00;;;1.50;;
19883;SDS011;10104;50.732;10.174;2023-12-28T01:06:48;3.23;;;1.63;;
19883;SDS011;10104;50.732;10.174;2023-12-28T01:09:29;2.57;;;1.43;;
19883;SDS011;10104;50.732;10.174;2023-12-28T01:12:10;2.90;;;1.80;;
19883;SDS011;10104;50.732;10.174;2023-12-28T01:14:50;2.50;;;1.60;;
19883;SDS011;10104;50.732;10.174;2023-12-28T01:17:30;2.40;;;1.50;;
19883;SDS011;10104;50.732;10.174;2023-12-28T01:20:11;3.10;;;1.57;;
19883;SDS011;10104;50.732;10.174;2023-12-28T01:22:51;2.80;;;1.40;;
19883;SDS011;10104;50.732;10.174;2023-12-28T01:25:32;1.83;;;1.40;;
19883;SDS011;10104;50.732;10.174;2023-12-28T01:28:12;3.00;;;1.83;;
19883;SDS011;10104;50.732;10.174;2023-12-28T01:30:52;2.87;;;1.63;;
19883;SDS011;10104;50.732;10.174;2023-12-28T01:33:33;2.10;;;1.60;;
19883;SDS011;10104;50.732;10.174;2023-12-28T01:36:17;4.87;;;1.60;;
19883;SDS011;10104;50.732;10.174;2023-12-28T01:38:58;2.53;;;1.80;;
19883;SDS011;10104;50.732;10.174;2023-12-28T01:41:38;2.53;;;1.40;;
19883;SDS011;10104;50.732;10.174;2023-12-28T01:44:19;2.20;;;1.40;;
19883;SDS011;10104;50.732;10.174;2023-12-28T01:46:59;3.07;;;1.70;;
19883;SDS011;10104;50.732;10.174;2023-12-28T01:49:40;2.53;;;1.60;;
19883;SDS011;10104;50.732;10.174;2023-12-28T01:52:20;3.07;;;2.00;;
19883;SDS011;10104;50.732;10.174;2023-12-28T01:55:00;2.80;;;1.73;;
19883;SDS011;10104;50.732;10.174;2023-12-28T01:57:41;2.53;;;1.63;;
19883;SDS011;10104;50.732;10.174;2023-12-28T02:00:21;2.13;;;1.70;;
19883;SDS011;10104;50.732;10.174;2023-12-28T02:03:02;3.40;;;1.70;;
19883;SDS011;10104;50.732;10.174;2023-12-28T02:05:42;3.27;;;2.20;;
19883;SDS011;10104;50.732;10.174;2023-12-28T02:08:23;1.70;;;1.50;;
19883;SDS011;10104;50.732;10.174;2023-12-28T02:11:03;3.70;;;1.70;;
19883;SDS011;10104;50.732;10.174;2023-12-28T02:13:44;4.00;;;1.80;;
19883;SDS011;10104;50.732;10.174;2023-12-28T02:16:35;2.80;;;1.60;;
19883;SDS011;10104;50.732;10.174;2023-12-28T02:19:31;2.30;;;1.60;;
19883;SDS011;10104;50.732;10.174;2023-12-28T02:22:21;3.30;;;1.90;;
19883;SDS011;10104;50.732;10.174;2023-12-28T02:25:06;5.27;;;2.30;;
19883;SDS011;10104;50.732;10.174;2023-12-28T02:27:48;4.87;;;1.83;;
19883;SDS011;10104;50.732;10.174;2023-12-28T02:30:29;6.27;;;1.80;;
19883;SDS011;10104;50.732;10.174;2023-12-28T02:36:05;2.47;;;1.77;;
19883;SDS011;10104;50.732;10.174;2023-12-28T02:38:49;3.43;;;2.10;;
19883;SDS011;10104;50.732;10.174;2023-12-28T02:41:31;2.50;;;2.00;;
19883;SDS011;10104;50.732;10.174;2023-12-28T02:44:12;6.13;;;1.87;;
19883;SDS011;10104;50.732;10.174;2023-12-28T02:46:53;3.03;;;1.70;;
19883;SDS011;10104;50.732;10.174;2023-12-28T02:49:33;4.17;;;2.10;;
19883;SDS011;10104;50.732;10.174;2023-12-28T02:52:13;2.20;;;1.83;;
19883;SDS011;10104;50.732;10.174;2023-12-28T02:54:54;3.17;;;2.00;;
19883;SDS011;10104;50.732;10.174;2023-12-28T02:57:34;3.07;;;1.80;;
19883;SDS011;10104;50.732;10.174;2023-12-28T03:00:17;3.00;;;2.20;;
19883;SDS011;10104;50.732;10.174;2023-12-28T03:02:58;4.10;;;2.30;;
19883;SDS011;10104;50.732;10.174;2023-12-28T03:05:38;2.37;;;1.77;;
19883;SDS011;10104;50.732;10.174;2023-12-28T03:08:18;4.20;;;2.20;;
19883;SDS011;10104;50.732;10.174;2023-12-28T03:10:58;3.97;;;2.40;;
19883;SDS011;10104;50.732;10.174;2023-12-28T03:13:39;3.83;;;2.10;;
19883;SDS011;10104;50.732;10.174;2023-12-28T03:16:19;5.47;;;2.30;;
19883;SDS011;10104;50.732;10.174;2023-12-28T03:18:59;4.07;;;2.20;;
19883;SDS011;10104;50.732;10.174;2023-12-28T03:21:40;3.23;;;2.33;;
19883;SDS011;10104;50.732;10.174;2023-12-28T03:24:20;4.53;;;2.40;;
19883;SDS011;10104;50.732;10.174;2023-12-28T03:27:01;3.30;;;2.50;;
19883;SDS011;10104;50.732;10.174;2023-12-28T03:29:41;4.70;;;2.27;;
19883;SDS011;10104;50.732;10.174;2023-12-28T03:32:23;5.03;;;2.60;;
19883;SDS011;10104;50.732;10.174;2023-12-28T03:35:03;4.57;;;2.80;;
19883;SDS011;10104;50.732;10.174;2023-12-28T03:37:43;3.87;;;2.57;;
19883;SDS011;10104;50.732;10.174;2023-12-28T03:40:24;4.53;;;2.43;;
19883;SDS011;10104;50.732;10.174;2023-12-28T03:43:04;4.83;;;2.33;;
19883;SDS011;10104;50.732;10.174;2023-12-28T03:45:44;3.97;;;2.53;;
19883;SDS011;10104;50.732;10.174;2023-12-28T03:48:24;3.90;;;2.40;;
19883;SDS011;10104;50.732;10.174;2023-12-28T03:51:05;4.17;;;2.23;;
19883;SDS011;10104;50.732;10.174;2023-12-28T03:53:45;5.70;;;2.50;;
19883;SDS011;10104;50.732;10.174;2023-12-28T03:56:26;4.80;;;2.80;;
19883;SDS011;10104;50.732;10.174;2023-12-28T03:59:07;3.87;;;2.60;;
19883;SDS011;10104;50.732;10.174;2023-12-28T04:01:47;3.87;;;2.73;;
19883;SDS011;10104;50.732;10.174;2023-12-28T04:04:28;7.43;;;2.70;;
19883;SDS011;10104;50.732;10.174;2023-12-28T04:07:09;4.63;;;2.60;;
19883;SDS011;10104;50.732;10.174;2023-12-28T04:09:49;4.53;;;2.77;;
19883;SDS011;10104;50.732;10.174;2023-12-28T04:12:30;5.50;;;2.90;;
19883;SDS011;10104;50.732;10.174;2023-12-28T04:15:10;4.57;;;2.77;;
19883;SDS011;10104;50.732;10.174;2023-12-28T04:17:51;3.77;;;2.53;;
19883;SDS011;10104;50.732;10.174;2023-12-28T04:20:31;7.53;;;3.03;;
19883;SDS011;10104;50.732;10.174;2023-12-28T04:23:11;5.47;;;3.10;;
19883;SDS011;10104;50.732;10.174;2023-12-28T04:25:51;4.43;;;2.53;;
19883;SDS011;10104;50.732;10.174;2023-12-28T04:28:31;3.13;;;2.43;;
19883;SDS011;10104;50.732;10.174;2023-12-28T04:31:14;3.63;;;3.00;;
19883;SDS011;10104;50.732;10.174;2023-12-28T04:33:54;4.10;;;2.80;;
19883;SDS011;10104;50.732;10.174;2023-12-28T04:36:41;4.70;;;3.13;;
19883;SDS011;10104;50.732;10.174;2023-12-28T04:39:26;5.07;;;3.57;;
19883;SDS011;10104;50.732;10.174;2023-12-28T04:42:06;4.13;;;2.73;;
19883;SDS011;10104;50.732;10.174;2023-12-28T04:44:47;5.00;;;3.60;;
19883;SDS011;10104;50.732;10.174;2023-12-28T04:47:27;4.03;;;2.87;;
19883;SDS011;10104;50.732;10.174;2023-12-28T04:50:07;4.53;;;3.10;;
19883;SDS011;10104;50.732;10.174;2023-12-28T04:52:48;5.73;;;3.27;;
19883;SDS011;10104;50.732;10.174;2023-12-28T04:55:28;5.97;;;3.17;;
19883;SDS011;10104;50.732;10.174;2023-12-28T04:58:09;5.10;;;2.90;;
19883;SDS011;10104;50.732;10.174;2023-12-28T05:00:50;3.90;;;3.07;;
19883;SDS011;10104;50.732;10.174;2023-12-28T05:03:30;6.10;;;3.53;;
19883;SDS011;10104;50.732;10.174;2023-12-28T05:06:11;6.10;;;3.40;;
19883;SDS011;10104;50.732;10.174;2023-12-28T05:08:51;5.53;;;3.13;;
19883;SDS011;10104;50.732;10.174;2023-12-28T05:11:31;5.83;;;3.27;;
19883;SDS011;10104;50.732;10.174;2023-12-28T05:14:11;8.53;;;3.57;;
19883;SDS011;10104;50.732;10.174;2023-12-28T05:16:52;4.00;;;2.90;;
19883;SDS011;10104;50.732;10.174;2023-12-28T05:19:32;5.57;;;2.80;;
19883;SDS011;10104;50.732;10.174;2023-12-28T05:22:12;4.93;;;2.83;;
19883;SDS011;10104;50.732;10.174;2023-12-28T05:24:53;5.97;;;3.03;;
19883;SDS011;10104;50.732;10.174;2023-12-28T05:27:33;4.33;;;3.23;;
19883;SDS011;10104;50.732;10.174;2023-12-28T05:30:13;3.80;;;3.07;;
19883;SDS011;10104;50.732;10.174;2023-12-28T05:32:53;5.37;;;3.40;;
19883;SDS011;10104;50.732;10.174;2023-12-28T05:35:33;7.27;;;3.73;;
19883;SDS011;10104;50.732;10.174;2023-12-28T05:38:13;5.47;;;3.00;;
19883;SDS011;10104;50.732;10.174;2023-12-28T05:40:54;9.23;;;3.67;;
19883;SDS011;10104;50.732;10.174;2023-12-28T05:43:34;6.07;;;3.37;;
19883;SDS011;10104;50.732;10.174;2023-12-28T05:46:14;6.27;;;3.43;;
19883;SDS011;10104;50.732;10.174;2023-12-28T05:48:54;5.30;;;3.50;;
19883;SDS011;10104;50.732;10.174;2023-12-28T05:51:38;5.60;;;3.80;;
19883;SDS011;10104;50.732;10.174;2023-12-28T05:54:20;6.00;;;3.83;;
19883;SDS011;10104;50.732;10.174;2023-12-28T05:57:00;6.17;;;3.57;;
19883;SDS011;10104;50.732;10.174;2023-12-28T05:59:40;5.20;;;3.40;;
19883;SDS011;10104;50.732;10.174;2023-12-28T06:02:20;5.13;;;3.60;;
19883;SDS011;10104;50.732;10.174;2023-12-28T06:05:00;4.93;;;3.63;;
19883;SDS011;10104;50.732;10.174;2023-12-28T06:07:40;5.00;;;3.60;;
19883;SDS011;10104;50.732;10.174;2023-12-28T06:10:20;5.53;;;3.63;;
19883;SDS011;10104;50.732;10.174;2023-12-28T06:13:01;6.97;;;3.80;;
19883;SDS011;10104;50.732;10.174;2023-12-28T06:15:41;4.90;;;3.20;;
19883;SDS011;10104;50.732;10.174;2023-12-28T06:18:21;5.40;;;3.60;;
19883;SDS011;10104;50.732;10.174;2023-12-28T06:21:02;5.53;;;3.33;;
19883;SDS011;10104;50.732;10.174;2023-12-28T06:23:45;5.60;;;3.40;;
19883;SDS011;10104;50.732;10.174;2023-12-28T06:26:25;4.73;;;3.03;;
19883;SDS011;10104;50.732;10.174;2023-12-28T06:29:05;5.00;;;3.40;;
19883;SDS011;10104;50.732;10.174;2023-12-28T06:31:46;4.40;;;3.13;;
19883;SDS011;10104;50.732;10.174;2023-12-28T06:34:26;5.37;;;3.23;;
19883;SDS011;10104;50.732;10.174;2023-12-28T06:37:06;4.63;;;3.00;;
19883;SDS011;10104;50.732;10.174;2023-12-28T06:39:47;5.20;;;3.70;;
19883;SDS011;10104;50.732;10.174;2023-12-28T06:42:27;5.93;;;4.50;;
19883;SDS011;10104;50.732;10.174;2023-12-28T06:45:07;5.97;;;3.50;;
19883;SDS011;10104;50.732;10.174;2023-12-28T06:47:48;5.13;;;3.30;;
19883;SDS011;10104;50.732;10.174;2023-12-28T06:50:28;5.07;;;3.43;;
19883;SDS011;10104;50.732;10.174;2023-12-28T06:53:08;5.20;;;3.90;;
19883;SDS011;10104;50.732;10.174;2023-12-28T06:55:49;4.47;;;3.17;;
19883;SDS011;10104;50.732;10.174;2023-12-28T06:58:29;6.83;;;3.30;;
19883;SDS011;10104;50.732;10.174;2023-12-28T07:01:09;4.33;;;3.07;;
19883;SDS011;10104;50.732;10.174;2023-12-28T07:03:49;4.90;;;3.03;;
19883;SDS011;10104;50.732;10.174;2023-12-28T07:06:30;4.73;;;3.20;;
19883;SDS011;10104;50.732;10.174;2023-12-28T07:09:10;3.80;;;2.60;;
19883;SDS011;10104;50.732;10.174;2023-12-28T07:11:50;4.80;;;2.97;;
19883;SDS011;10104;50.732;10.174;2023-12-28T07:14:30;3.60;;;2.90;;
19883;SDS011;10104;50.732;10.174;2023-12-28T07:17:11;3.53;;;2.73;;
19883;SDS011;10104;50.732;10.174;2023-12-28T07:19:52;5.00;;;3.00;;
19883;SDS011;10104;50.732;10.174;2023-12-28T07:22:32;4.63;;;2.90;;
19883;SDS011;10104;50.732;10.174;2023-12-28T07:25:12;5.07;;;2.70;;
19883;SDS011;10104;50.732;10.174;2023-12-28T07:27:53;3.37;;;2.40;;
19883;SDS011;10104;50.732;10.174;2023-12-28T07:30:33;4.17;;;2.60;;
19883;SDS011;10104;50.732;10.174;2023-12-28T07:33:14;4.80;;;3.00;;
19883;SDS011;10104;50.732;10.174;2023-12-28T07:35:54;3.23;;;2.40;;
19883;SDS011;10104;50.732;10.174;2023-12-28T07:38:34;5.40;;;2.80;;
19883;SDS011;10104;50.732;10.174;2023-12-28T07:41:14;4.03;;;2.60;;
19883;SDS011;10104;50.732;10.174;2023-12-28T07:43:55;6.77;;;2.80;;
19883;SDS011;10104;50.732;10.174;2023-12-28T07:46:35;5.27;;;2.70;;
19883;SDS011;10104;50.732;10.174;2023-12-28T07:49:16;3.67;;;2.63;;
19883;SDS011;10104;50.732;10.174;2023-12-28T07:51:57;4.53;;;2.60;;
19883;SDS011;10104;50.732;10.174;2023-12-28T07:54:38;3.93;;;2.63;;
19883;SDS011;10104;50.732;10.174;2023-12-28T07:57:18;3.30;;;2.40;;
19883;SDS011;10104;50.732;10.174;2023-12-28T07:59:58;4.53;;;2.60;;
19883;SDS011;10104;50.732;10.174;2023-12-28T08:02:39;3.50;;;2.47;;
19883;SDS011;10104;50.732;10.174;2023-12-28T08:05:19;3.90;;;2.40;;
19883;SDS011;10104;50.732;10.174;2023-12-28T08:07:59;5.43;;;2.57;;
19883;SDS011;10104;50.732;10.174;2023-12-28T08:10:40;3.90;;;2.93;;
19883;SDS011;10104;50.732;10.174;2023-12-28T08:13:21;3.13;;;2.33;;
19883;SDS011;10104;50.732;10.174;2023-12-28T08:16:01;3.23;;;2.10;;
19883;SDS011;10104;50.732;10.174;2023-12-28T08:18:42;3.40;;;2.30;;
19883;SDS011;10104;50.732;10.174;2023-12-28T08:21:23;3.53;;;2.30;;
19883;SDS011;10104;50.732;10.174;2023-12-28T08:24:03;3.27;;;2.33;;
19883;SDS011;10104;50.732;10.174;2023-12-28T08:26:44;5.90;;;2.50;;
19883;SDS011;10104;50.732;10.174;2023-12-28T08:29:24;3.10;;;2.10;;
19883;SDS011;10104;50.732;10.174;2023-12-28T08:32:05;3.27;;;2.20;;
19883;SDS011;10104;50.732;10.174;2023-12-28T08:34:46;3.13;;;2.03;;
19883;SDS011;10104;50.732;10.174;2023-12-28T08:37:28;4.03;;;2.33;;
19883;SDS011;10104;50.732;10.174;2023-12-28T08:40:08;3.90;;;2.10;;
19883;SDS011;10104;50.732;10.174;2023-12-28T08:42:49;3.73;;;2.13;;
19883;SDS011;10104;50.732;10.174;2023-12-28T08:45:29;3.87;;;2.30;;
19883;SDS011;10104;50.732;10.174;2023-12-28T08:48:10;3.00;;;1.97;;
19883;SDS011;10104;50.732;10.174;2023-12-28T08:50:50;5.00;;;2.00;;
19883;SDS011;10104;50.732;10.174;2023-12-28T08:53:31;5.13;;;2.10;;
19883;SDS011;10104;50.732;10.174;2023-12-28T08:56:20;4.00;;;2.20;;
19883;SDS011;10104;50.732;10.174;2023-12-28T08:59:01;2.70;;;2.07;;
19883;SDS011;10104;50.732;10.174;2023-12-28T09:01:41;3.57;;;2.17;;
19883;SDS011;10104;50.732;10.174;2023-12-28T09:04:21;2.80;;;1.87;;
19883;SDS011;10104;50.732;10.174;2023-12-28T09:07:01;2.93;;;1.73;;
19883;SDS011;10104;50.732;10.174;2023-12-28T09:09:42;2.93;;;1.80;;
19883;SDS011;10104;50.732;10.174;2023-12-28T09:12:22;3.03;;;1.60;;
19883;SDS011;10104;50.732;10.174;2023-12-28T09:15:06;2.73;;;1.80;;
19883;SDS011;10104;50.732;10.174;2023-12-28T09:17:47;3.37;;;1.90;;
19883;SDS011;10104;50.732;10.174;2023-12-28T09:20:28;2.70;;;1.80;;
19883;SDS011;10104;50.732;10.174;2023-12-28T09:23:08;2.23;;;1.53;;
19883;SDS011;10104;50.732;10.174;2023-12-28T09:25:50;4.13;;;1.60;;
19883;SDS011;10104;50.732;10.174;2023-12-28T09:28:31;4.33;;;1.63;;
19883;SDS011;10104;50.732;10.174;2023-12-28T09:31:11;2.00;;;1.53;;
19883;SDS011;10104;50.732;10.174;2023-12-28T09:33:52;2.87;;;1.80;;
19883;SDS011;10104;50.732;10.174;2023-12-28T09:36:33;3.87;;;1.63;;
19883;SDS011;10104;50.732;10.174;2023-12-28T09:39:13;2.40;;;1.87;;
19883;SDS011;10104;50.732;10.174;2023-12-28T09:42:04;2.43;;;1.50;;
19883;SDS011;10104;50.732;10.174;2023-12-28T09:44:47;3.07;;;1.63;;
19883;SDS011;10104;50.732;10.174;2023-12-28T09:47:27;2.90;;;1.83;;
19883;SDS011;10104;50.732;10.174;2023-12-28T09:50:08;2.67;;;2.00;;
19883;SDS011;10104;50.732;10.174;2023-12-28T09:52:49;4.13;;;1.83;;
19883;SDS011;10104;50.732;10.174;2023-12-28T09:55:29;2.90;;;1.80;;
19883;SDS011;10104;50.732;10.174;2023-12-28T09:58:09;2.23;;;1.53;;
19883;SDS011;10104;50.732;10.174;2023-12-28T10:00:53;2.53;;;2.13;;
19883;SDS011;10104;50.732;10.174;2023-12-28T10:03:33;3.30;;;1.63;;
19883;SDS011;10104;50.732;10.174;2023-12-28T10:06:14;4.57;;;2.40;;
19883;SDS011;10104;50.732;10.174;2023-12-28T10:08:56;2.23;;;1.67;;
19883;SDS011;10104;50.732;10.174;2023-12-28T10:11:36;2.30;;;1.77;;
19883;SDS011;10104;50.732;10.174;2023-12-28T10:14:16;3.53;;;1.53;;
19883;SDS011;10104;50.732;10.174;2023-12-28T10:16:57;4.63;;;1.83;;
19883;SDS011;10104;50.732;10.174;2023-12-28T10:19:37;4.37;;;1.70;;
19883;SDS011;10104;50.732;10.174;2023-12-28T10:22:18;3.80;;;1.77;;
19883;SDS011;10104;50.732;10.174;2023-12-28T10:24:59;2.47;;;1.60;;
19883;SDS011;10104;50.732;10.174;2023-12-28T10:27:42;3.53;;;1.90;;
19883;SDS011;10104;50.732;10.174;2023-12-28T10:30:23;3.17;;;1.50;;
19883;SDS011;10104;50.732;10.174;2023-12-28T10:33:06;2.27;;;1.33;;
19883;SDS011;10104;50.732;10.174;2023-12-28T10:35:49;2.87;;;1.50;;
19883;SDS011;10104;50.732;10.174;2023-12-28T10:38:32;1.97;;;1.10;;
19883;SDS011;10104;50.732;10.174;2023-12-28T10:41:15;4.47;;;1.80;;
19883;SDS011;10104;50.732;10.174;2023-12-28T10:44:02;1.93;;;1.43;;
19883;SDS011;10104;50.732;10.174;2023-12-28T10:46:50;1.43;;;1.30;;
19883;SDS011;10104;50.732;10.174;2023-12-28T10:49:33;2.73;;;1.50;;
19883;SDS011;10104;50.732;10.174;2023-12-28T10:52:16;2.73;;;1.63;;
19883;SDS011;10104;50.732;10.174;2023-12-28T10:59:05;3.07;;;1.73;;
19883;SDS011;10104;50.732;10.174;2023-12-28T11:01:32;1.97;;;1.47;;
19883;SDS011;10104;50.732;10.174;2023-12-28T11:07:22;3.03;;;1.70;;
19883;SDS011;10104;50.732;10.174;2023-12-28T11:10:04;3.33;;;1.43;;
19883;SDS011;10104;50.732;10.174;2023-12-28T11:12:47;3.73;;;1.80;;
19883;SDS011;10104;50.732;10.174;2023-12-28T11:15:28;2.90;;;1.50;;
19883;SDS011;10104;50.732;10.174;2023-12-28T11:18:10;2.53;;;1.73;;
19883;SDS011;10104;50.732;10.174;2023-12-28T11:20:51;3.60;;;1.80;;
19883;SDS011;10104;50.732;10.174;2023-12-28T11:23:32;2.43;;;1.53;;
19883;SDS011;10104;50.732;10.174;2023-12-28T11:26:20;4.30;;;1.63;;
19883;SDS011;10104;50.732;10.174;2023-12-28T11:29:01;5.10;;;1.83;;
19883;SDS011;10104;50.732;10.174;2023-12-28T11:31:42;4.30;;;1.40;;
19883;SDS011;10104;50.732;10.174;2023-12-28T11:34:30;6.30;;;1.77;;
19883;SDS011;10104;50.732;10.174;2023-12-28T11:37:14;3.53;;;1.73;;
19883;SDS011;10104;50.732;10.174;2023-12-28T11:40:09;4.23;;;1.67;;
19883;SDS011;10104;50.732;10.174;2023-12-28T11:42:50;3.07;;;1.73;;
19883;SDS011;10104;50.732;10.174;2023-12-28T11:45:32;3.50;;;1.63;;
19883;SDS011;10104;50.732;10.174;2023-12-28T11:48:14;3.63;;;1.30;;
19883;SDS011;10104;50.732;10.174;2023-12-28T11:51:02;5.53;;;1.70;;
19883;SDS011;10104;50.732;10.174;2023-12-28T11:53:42;3.63;;;1.70;;
19883;SDS011;10104;50.732;10.174;2023-12-28T11:56:24;2.80;;;1.53;;
19883;SDS011;10104;50.732;10.174;2023-12-28T11:59:05;2.70;;;1.50;;
19883;SDS011;10104;50.732;10.174;2023-12-28T12:01:50;2.13;;;1.53;;
19883;SDS011;10104;50.732;10.174;2023-12-28T12:04:33;2.50;;;1.53;;
19883;SDS011;10104;50.732;10.174;2023-12-28T12:07:14;4.80;;;1.80;;
19883;SDS011;10104;50.732;10.174;2023-12-28T12:09:55;2.80;;;1.50;;
19883;SDS011;10104;50.732;10.174;2023-12-28T12:12:36;3.20;;;1.60;;
19883;SDS011;10104;50.732;10.174;2023-12-28T12:15:17;4.97;;;1.97;;
19883;SDS011;10104;50.732;10.174;2023-12-28T12:17:58;4.67;;;1.57;;
19883;SDS011;10104;50.732;10.174;2023-12-28T12:20:38;4.37;;;1.40;;
19883;SDS011;10104;50.732;10.174;2023-12-28T12:23:19;2.03;;;1.40;;
19883;SDS011;10104;50.732;10.174;2023-12-28T12:25:59;2.37;;;1.40;;
19883;SDS011;10104;50.732;10.174;2023-12-28T12:28:39;3.90;;;1.50;;
19883;SDS011;10104;50.732;10.174;2023-12-28T12:31:24;3.27;;;1.40;;
19883;SDS011;10104;50.732;10.174;2023-12-28T12:34:04;2.60;;;1.37;;
19883;SDS011;10104;50.732;10.174;2023-12-28T12:36:45;2.03;;;1.37;;
19883;SDS011;10104;50.732;10.174;2023-12-28T12:39:26;3.13;;;1.40;;
19883;SDS011;10104;50.732;10.174;2023-12-28T12:42:06;4.20;;;1.70;;
19883;SDS011;10104;50.732;10.174;2023-12-28T12:44:46;3.03;;;1.63;;
19883;SDS011;10104;50.732;10.174;2023-12-28T12:47:31;2.17;;;1.30;;
19883;SDS011;10104;50.732;10.174;2023-12-28T12:50:13;2.93;;;1.57;;
19883;SDS011;10104;50.732;10.174;2023-12-28T12:52:53;3.30;;;1.73;;
19883;SDS011;10104;50.732;10.174;2023-12-28T12:55:33;2.87;;;1.47;;
19883;SDS011;10104;50.732;10.174;2023-12-28T12:58:14;1.80;;;1.20;;
19883;SDS011;10104;50.732;10.174;2023-12-28T13:00:56;3.47;;;1.50;;
19883;SDS011;10104;50.732;10.174;2023-12-28T13:03:36;3.57;;;1.40;;
19883;SDS011;10104;50.732;10.174;2023-12-28T13:06:18;2.30;;;1.50;;
19883;SDS011;10104;50.732;10.174;2023-12-28T13:09:03;2.17;;;1.30;;
19883;SDS011;10104;50.732;10.174;2023-12-28T13:11:46;4.00;;;1.47;;
19883;SDS011;10104;50.732;10.174;2023-12-28T13:14:30;1.87;;;1.30;;
19883;SDS011;10104;50.732;10.174;2023-12-28T13:17:11;4.00;;;1.83;;
19883;SDS011;10104;50.732;10.174;2023-12-28T13:19:51;3.33;;;1.33;;
19883;SDS011;10104;50.732;10.174;2023-12-28T13:22:32;3.70;;;1.20;;
19883;SDS011;10104;50.732;10.174;2023-12-28T13:25:14;2.53;;;1.40;;
19883;SDS011;10104;50.732;10.174;2023-12-28T13:27:55;2.43;;;1.30;;
19883;SDS011;10104;50.732;10.174;2023-12-28T13:30:35;1.40;;;1.10;;
19883;SDS011;10104;50.732;10.174;2023-12-28T13:33:17;1.90;;;1.20;;
19883;SDS011;10104;50.732;10.174;2023-12-28T13:35:58;2.40;;;1.40;;
19883;SDS011;10104;50.732;10.174;2023-12-28T13:38:38;4.33;;;1.50;;
19883;SDS011;10104;50.732;10.174;2023-12-28T13:41:19;2.63;;;1.47;;
19883;SDS011;10104;50.732;10.174;2023-12-28T13:43:59;4.27;;;1.43;;
19883;SDS011;10104;50.732;10.174;2023-12-28T13:46:43;2.80;;;1.37;;
19883;SDS011;10104;50.732;10.174;2023-12-28T13:49:23;5.13;;;1.50;;
19883;SDS011;10104;50.732;10.174;2023-12-28T13:52:06;3.57;;;1.50;;
19883;SDS011;10104;50.732;10.174;2023-12-28T13:54:46;3.00;;;1.60;;
19883;SDS011;10104;50.732;10.174;2023-12-28T13:57:26;3.90;;;1.13;;
19883;SDS011;10104;50.732;10.174;2023-12-28T14:00:07;1.87;;;1.30;;
19883;SDS011;10104;50.732;10.174;2023-12-28T14:02:48;4.40;;;1.63;;
19883;SDS011;10104;50.732;10.174;2023-12-28T14:05:28;4.37;;;1.50;;
19883;SDS011;10104;50.732;10.174;2023-12-28T14:08:14;3.33;;;1.80;;
19883;SDS011;10104;50.732;10.174;2023-12-28T14:10:54;1.73;;;1.20;;
19883;SDS011;10104;50.732;10.174;2023-12-28T14:13:35;2.87;;;1.47;;
19883;SDS011;10104;50.732;10.174;2023-12-28T14:16:16;4.23;;;1.40;;
19883;SDS011;10104;50.732;10.174;2023-12-28T14:18:56;4.37;;;1.50;;
19883;SDS011;10104;50.732;10.174;2023-12-28T14:21:37;2.87;;;1.27;;
19883;SDS011;10104;50.732;10.174;2023-12-28T14:24:18;3.50;;;1.27;;
19883;SDS011;10104;50.732;10.174;2023-12-28T14:26:59;4.30;;;1.77;;
19883;SDS011;10104;50.732;10.174;2023-12-28T14:29:39;1.70;;;1.40;;
19883;SDS011;10104;50.732;10.174;2023-12-28T14:32:20;3.07;;;2.10;;
19883;SDS011;10104;50.732;10.174;2023-12-28T14:35:01;2.43;;;1.33;;
19883;SDS011;10104;50.732;10.174;2023-12-28T14:37:42;2.63;;;1.40;;
19883;SDS011;10104;50.732;10.174;2023-12-28T14:40:23;3.00;;;1.50;;
19883;SDS011;10104;50.732;10.174;2023-12-28T14:43:03;4.87;;;1.80;;
19883;SDS011;10104;50.732;10.174;2023-12-28T14:45:44;4.90;;;1.43;;
19883;SDS011;10104;50.732;10.174;2023-12-28T14:48:26;3.40;;;1.37;;
19883;SDS011;10104;50.732;10.174;2023-12-28T14:51:06;3.13;;;1.20;;
19883;SDS011;10104;50.732;10.174;2023-12-28T14:53:46;2.63;;;1.10;;
19883;SDS011;10104;50.732;10.174;2023-12-28T14:56:27;4.50;;;1.80;;
19883;SDS011;10104;50.732;10.174;2023-12-28T14:59:23;3.40;;;1.40;;
19883;SDS011;10104;50.732;10.174;2023-12-28T15:02:03;4.93;;;1.57;;
19883;SDS011;10104;50.732;10.174;2023-12-28T15:04:43;4.67;;;1.53;;
19883;SDS011;10104;50.732;10.174;2023-12-28T15:07:24;2.63;;;1.47;;
19883;SDS011;10104;50.732;10.174;2023-12-28T15:10:05;2.87;;;1.40;;
19883;SDS011;10104;50.732;10.174;2023-12-28T15:12:48;3.47;;;1.40;;
19883;SDS011;10104;50.732;10.174;2023-12-28T15:15:30;5.43;;;1.50;;
19883;SDS011;10104;50.732;10.174;2023-12-28T15:18:11;3.87;;;1.47;;
19883;SDS011;10104;50.732;10.174;2023-12-28T15:20:52;2.90;;;1.10;;
19883;SDS011;10104;50.732;10.174;2023-12-28T15:23:33;2.70;;;1.80;;
19883;SDS011;10104;50.732;10.174;2023-12-28T15:26:15;3.43;;;1.57;;
19883;SDS011;10104;50.732;10.174;2023-12-28T15:28:55;3.47;;;1.20;;
19883;SDS011;10104;50.732;10.174;2023-12-28T15:31:35;5.17;;;1.37;;
19883;SDS011;10104;50.732;10.174;2023-12-28T15:34:16;1.90;;;1.30;;
19883;SDS011;10104;50.732;10.174;2023-12-28T15:36:57;2.83;;;1.23;;
19883;SDS011;10104;50.732;10.174;2023-12-28T15:39:38;4.20;;;1.40;;
19883;SDS011;10104;50.732;10.174;2023-12-28T15:42:18;3.53;;;1.40;;
19883;SDS011;10104;50.732;10.174;2023-12-28T15:44:59;2.97;;;1.50;;
19883;SDS011;10104;50.732;10.174;2023-12-28T15:47:39;3.00;;;1.47;;
19883;SDS011;10104;50.732;10.174;2023-12-28T15:50:19;3.07;;;1.50;;
19883;SDS011;10104;50.732;10.174;2023-12-28T15:53:00;5.90;;;1.67;;
19883;SDS011;10104;50.732;10.174;2023-12-28T15:55:40;5.40;;;1.50;;
19883;SDS011;10104;50.732;10.174;2023-12-28T15:58:20;1.77;;;1.20;;
19883;SDS011;10104;50.732;10.174;2023-12-28T16:01:02;2.87;;;1.63;;
19883;SDS011;10104;50.732;10.174;2023-12-28T16:03:43;2.80;;;1.40;;
19883;SDS011;10104;50.732;10.174;2023-12-28T16:06:23;4.00;;;1.50;;